sensor_id;sensor_type;location;lat;lon;timestamp;pressure;altitude;pressure_sealevel;temperature;humidity
70921;BME280;58572;48.110;19.838;2022-12-11T00:01:17;95726.13;;;4.13;83.61
70921;BME280;58572;48.110;19.838;2022-12-11T00:03:45;95685.38;;;3.73;84.77
70921;BME280;58572;48.110;19.838;2022-12-11T00:06:15;95709.56;;;4.52;83.64
70921;BME280;58572;48.110;19.838;2022-12-11T00:08:42;95706.28;;;4.69;82.11
70921;BME280;58572;48.110;19.838;2022-12-11T00:11:11;95714.69;;;3.89;84.26
70921;BME280;58572;48.110;19.838;2022-12-11T00:13:40;95707.56;;;4.30;83.58
70921;BME280;58572;48.110;19.838;2022-12-11T00:16:07;95696.72;;;4.63;82.11
70921;BME280;58572;48.110;19.838;2022-12-11T00:18:35;95683.69;;;4.10;83.54
70921;BME280;58572;48.110;19.838;2022-12-11T00:21:04;95678.91;;;4.07;81.84
70921;BME280;58572;48.110;19.838;2022-12-11T00:23:32;95680.25;;;3.91;83.50
70921;BME280;58572;48.110;19.838;2022-12-11T00:26:00;95652.13;;;4.15;82.56
70921;BME280;58572;48.110;19.838;2022-12-11T00:28:31;95617.81;;;4.26;80.35
70921;BME280;58572;48.110;19.838;2022-12-11T00:31:02;95667.72;;;4.60;81.55
70921;BME280;58572;48.110;19.838;2022-12-11T00:33:30;95658.94;;;4.68;81.67
70921;BME280;58572;48.110;19.838;2022-12-11T00:35:57;95648.25;;;4.90;80.38
70921;BME280;58572;48.110;19.838;2022-12-11T00:38:24;95659.16;;;4.58;81.60
70921;BME280;58572;48.110;19.838;2022-12-11T00:40:52;95659.94;;;3.84;82.41
70921;BME280;58572;48.110;19.838;2022-12-11T00:43:19;95655.38;;;3.99;80.32
70921;BME280;58572;48.110;19.838;2022-12-11T00:45:46;95654.25;;;4.32;82.20
70921;BME280;58572;48.110;19.838;2022-12-11T00:48:15;95510.81;;;3.55;81.48
70921;BME280;58572;48.110;19.838;2022-12-11T00:50:42;95641.25;;;3.28;83.98
70921;BME280;58572;48.110;19.838;2022-12-11T00:53:09;95628.88;;;4.38;82.35
70921;BME280;58572;48.110;19.838;2022-12-11T00:55:38;95632.19;;;4.03;81.98
70921;BME280;58572;48.110;19.838;2022-12-11T00:58:05;95633.06;;;3.84;83.74
70921;BME280;58572;48.110;19.838;2022-12-11T01:00:33;95627.66;;;3.71;82.44
70921;BME280;58572;48.110;19.838;2022-12-11T01:03:00;95527.75;;;3.69;81.39
70921;BME280;58572;48.110;19.838;2022-12-11T01:05:29;95631.69;;;4.01;81.36
70921;BME280;58572;48.110;19.838;2022-12-11T01:07:56;95626.28;;;3.73;81.14
70921;BME280;58572;48.110;19.838;2022-12-11T01:10:23;95628.38;;;3.44;83.49
70921;BME280;58572;48.110;19.838;2022-12-11T01:12:49;95630.47;;;3.79;82.85
70921;BME280;58572;48.110;19.838;2022-12-11T01:15:17;95631.09;;;3.25;82.77
70921;BME280;58572;48.110;19.838;2022-12-11T01:17:44;95629.41;;;3.29;83.02
70921;BME280;58572;48.110;19.838;2022-12-11T01:20:11;95623.84;;;3.58;82.51
70921;BME280;58572;48.110;19.838;2022-12-11T01:22:40;95628.28;;;3.81;80.93
70921;BME280;58572;48.110;19.838;2022-12-11T01:25:08;95627.72;;;3.98;81.86
70921;BME280;58572;48.110;19.838;2022-12-11T01:27:37;95624.69;;;3.40;82.08
70921;BME280;58572;48.110;19.838;2022-12-11T01:30:06;95539.22;;;2.77;81.98
70921;BME280;58572;48.110;19.838;2022-12-11T01:32:34;95632.69;;;3.26;81.14
70921;BME280;58572;48.110;19.838;2022-12-11T01:35:02;95620.28;;;3.30;82.87
70921;BME280;58572;48.110;19.838;2022-12-11T01:37:31;95622.09;;;3.81;82.42
70921;BME280;58572;48.110;19.838;2022-12-11T01:40:00;95622.53;;;4.02;79.21
70921;BME280;58572;48.110;19.838;2022-12-11T01:42:27;95571.22;;;3.25;82.28
70921;BME280;58572;48.110;19.838;2022-12-11T01:48:12;95608.19;;;3.14;83.37
70921;BME280;58572;48.110;19.838;2022-12-11T01:50:42;95604.16;;;3.11;83.09
70921;BME280;58572;48.110;19.838;2022-12-11T01:53:14;95610.84;;;3.33;81.59
70921;BME280;58572;48.110;19.838;2022-12-11T01:55:45;95509.34;;;2.08;81.10
70921;BME280;58572;48.110;19.838;2022-12-11T01:58:15;95614.38;;;3.09;83.49
70921;BME280;58572;48.110;19.838;2022-12-11T02:00:44;95625.78;;;2.64;80.77
70921;BME280;58572;48.110;19.838;2022-12-11T02:03:11;95614.66;;;3.45;83.45
70921;BME280;58572;48.110;19.838;2022-12-11T02:05:38;95608.59;;;3.02;83.44
70921;BME280;58572;48.110;19.838;2022-12-11T02:08:06;95605.03;;;2.88;83.37
70921;BME280;58572;48.110;19.838;2022-12-11T02:10:58;95609.38;;;3.03;82.95
70921;BME280;58572;48.110;19.838;2022-12-11T02:13:34;95625.13;;;2.29;82.83
70921;BME280;58572;48.110;19.838;2022-12-11T02:16:09;95580.16;;;2.64;83.15
70921;BME280;58572;48.110;19.838;2022-12-11T02:18:46;95606.88;;;2.31;81.84
70921;BME280;58572;48.110;19.838;2022-12-11T02:21:18;95608.69;;;2.36;84.61
70921;BME280;58572;48.110;19.838;2022-12-11T02:23:59;95596.41;;;2.11;82.08
70921;BME280;58572;48.110;19.838;2022-12-11T02:26:49;95606.09;;;2.49;83.54
70921;BME280;58572;48.110;19.838;2022-12-11T02:29:23;95610.19;;;2.84;83.12
70921;BME280;58572;48.110;19.838;2022-12-11T02:31:55;95604.88;;;2.18;82.33
70921;BME280;58572;48.110;19.838;2022-12-11T02:34:28;95604.56;;;2.43;81.94
70921;BME280;58572;48.110;19.838;2022-12-11T02:36:59;95610.72;;;1.96;82.57
70921;BME280;58572;48.110;19.838;2022-12-11T02:39:28;95619.53;;;2.87;83.99
70921;BME280;58572;48.110;19.838;2022-12-11T02:41:57;95628.91;;;1.75;83.51
70921;BME280;58572;48.110;19.838;2022-12-11T02:44:29;95629.19;;;1.74;85.54
70921;BME280;58572;48.110;19.838;2022-12-11T02:46:58;95612.78;;;2.52;83.68
70921;BME280;58572;48.110;19.838;2022-12-11T02:49:25;95625.25;;;2.19;82.13
70921;BME280;58572;48.110;19.838;2022-12-11T02:51:55;95545.00;;;1.56;85.23
70921;BME280;58572;48.110;19.838;2022-12-11T02:54:25;95632.22;;;1.91;85.10
70921;BME280;58572;48.110;19.838;2022-12-11T02:56:59;95634.84;;;1.96;84.20
70921;BME280;58572;48.110;19.838;2022-12-11T02:59:29;95636.81;;;2.81;83.62
70921;BME280;58572;48.110;19.838;2022-12-11T03:01:59;95656.03;;;2.45;81.37
70921;BME280;58572;48.110;19.838;2022-12-11T03:04:27;95637.22;;;1.74;83.55
70921;BME280;58572;48.110;19.838;2022-12-11T03:06:58;95637.44;;;2.30;82.73
70921;BME280;58572;48.110;19.838;2022-12-11T03:09:27;95516.91;;;1.77;83.53
70921;BME280;58572;48.110;19.838;2022-12-11T03:11:54;95639.38;;;2.24;83.85
70921;BME280;58572;48.110;19.838;2022-12-11T03:14:22;95646.56;;;1.76;84.20
70921;BME280;58572;48.110;19.838;2022-12-11T03:16:55;95649.34;;;2.85;82.76
70921;BME280;58572;48.110;19.838;2022-12-11T03:19:30;95633.91;;;1.53;84.10
70921;BME280;58572;48.110;19.838;2022-12-11T03:22:07;95635.50;;;2.97;82.22
70921;BME280;58572;48.110;19.838;2022-12-11T03:24:38;95644.66;;;2.53;84.38
70921;BME280;58572;48.110;19.838;2022-12-11T03:27:14;95631.72;;;2.79;81.56
70921;BME280;58572;48.110;19.838;2022-12-11T03:29:48;95622.78;;;2.46;82.71
70921;BME280;58572;48.110;19.838;2022-12-11T03:32:24;95623.38;;;2.62;82.04
70921;BME280;58572;48.110;19.838;2022-12-11T03:34:56;95626.56;;;3.02;81.47
70921;BME280;58572;48.110;19.838;2022-12-11T03:37:28;95633.69;;;3.11;82.05
70921;BME280;58572;48.110;19.838;2022-12-11T03:39:59;95621.88;;;2.75;81.30
70921;BME280;58572;48.110;19.838;2022-12-11T03:42:28;95632.09;;;3.29;81.79
70921;BME280;58572;48.110;19.838;2022-12-11T03:44:56;95626.72;;;3.29;81.15
70921;BME280;58572;48.110;19.838;2022-12-11T03:47:27;95630.13;;;2.60;81.68
70921;BME280;58572;48.110;19.838;2022-12-11T03:49:57;95634.22;;;3.13;81.89
70921;BME280;58572;48.110;19.838;2022-12-11T03:52:26;95593.56;;;3.01;81.26
70921;BME280;58572;48.110;19.838;2022-12-11T03:54:56;95626.09;;;3.18;81.87
70921;BME280;58572;48.110;19.838;2022-12-11T03:57:29;95628.25;;;2.79;82.90
70921;BME280;58572;48.110;19.838;2022-12-11T03:59:57;95609.97;;;3.18;81.35
70921;BME280;58572;48.110;19.838;2022-12-11T04:02:30;95615.13;;;2.35;81.59
70921;BME280;58572;48.110;19.838;2022-12-11T04:04:58;95601.88;;;2.24;82.65
70921;BME280;58572;48.110;19.838;2022-12-11T04:07:25;95596.41;;;2.91;83.12
70921;BME280;58572;48.110;19.838;2022-12-11T04:09:53;95573.88;;;1.59;84.24
70921;BME280;58572;48.110;19.838;2022-12-11T04:12:20;95601.84;;;2.86;82.90
70921;BME280;58572;48.110;19.838;2022-12-11T04:14:47;95590.09;;;3.19;81.17
70921;BME280;58572;48.110;19.838;2022-12-11T04:17:28;95585.75;;;3.24;80.96
70921;BME280;58572;48.110;19.838;2022-12-11T04:20:14;95592.53;;;3.35;80.70
70921;BME280;58572;48.110;19.838;2022-12-11T04:22:58;95589.44;;;3.09;81.02
70921;BME280;58572;48.110;19.838;2022-12-11T04:25:43;95587.47;;;3.33;80.96
70921;BME280;58572;48.110;19.838;2022-12-11T04:28:10;95600.34;;;1.89;84.20
70921;BME280;58572;48.110;19.838;2022-12-11T04:30:38;95451.63;;;2.16;82.05
70921;BME280;58572;48.110;19.838;2022-12-11T04:33:05;95596.78;;;3.22;81.37
70921;BME280;58572;48.110;19.838;2022-12-11T04:35:35;95583.34;;;3.22;80.89
70921;BME280;58572;48.110;19.838;2022-12-11T04:38:02;95579.38;;;3.19;81.38
70921;BME280;58572;48.110;19.838;2022-12-11T04:40:29;95593.97;;;1.85;85.03
70921;BME280;58572;48.110;19.838;2022-12-11T04:42:58;95577.00;;;2.19;83.16
70921;BME280;58572;48.110;19.838;2022-12-11T04:45:26;95592.78;;;3.01;81.99
70921;BME280;58572;48.110;19.838;2022-12-11T04:47:53;95581.31;;;2.39;83.06
70921;BME280;58572;48.110;19.838;2022-12-11T04:50:21;95597.94;;;1.64;83.97
70921;BME280;58572;48.110;19.838;2022-12-11T04:52:50;95589.84;;;2.22;85.02
70921;BME280;58572;48.110;19.838;2022-12-11T04:55:20;95594.00;;;3.08;81.07
70921;BME280;58572;48.110;19.838;2022-12-11T04:57:47;95587.63;;;3.04;80.81
70921;BME280;58572;48.110;19.838;2022-12-11T05:00:15;95591.94;;;2.25;84.06
70921;BME280;58572;48.110;19.838;2022-12-11T05:02:42;95601.56;;;2.26;84.58
70921;BME280;58572;48.110;19.838;2022-12-11T05:05:10;95602.28;;;2.55;83.72
70921;BME280;58572;48.110;19.838;2022-12-11T05:07:37;95599.81;;;2.78;82.77
70921;BME280;58572;48.110;19.838;2022-12-11T05:10:07;95598.22;;;2.77;79.66
70921;BME280;58572;48.110;19.838;2022-12-11T05:12:35;95599.44;;;3.03;80.75
70921;BME280;58572;48.110;19.838;2022-12-11T05:15:03;95607.78;;;2.45;82.22
70921;BME280;58572;48.110;19.838;2022-12-11T05:17:30;95575.91;;;2.63;81.83
70921;BME280;58572;48.110;19.838;2022-12-11T05:19:57;95605.47;;;2.95;81.61
70921;BME280;58572;48.110;19.838;2022-12-11T05:22:25;95608.19;;;3.14;80.21
70921;BME280;58572;48.110;19.838;2022-12-11T05:24:52;95570.25;;;2.83;81.22
70921;BME280;58572;48.110;19.838;2022-12-11T05:27:21;95619.97;;;3.32;80.40
70921;BME280;58572;48.110;19.838;2022-12-11T05:29:48;95635.09;;;3.28;80.16
70921;BME280;58572;48.110;19.838;2022-12-11T05:32:15;95613.97;;;3.02;80.62
70921;BME280;58572;48.110;19.838;2022-12-11T05:34:43;95636.59;;;3.34;79.98
70921;BME280;58572;48.110;19.838;2022-12-11T05:37:10;95639.88;;;3.31;80.87
70921;BME280;58572;48.110;19.838;2022-12-11T05:39:37;95647.41;;;3.29;80.25
70921;BME280;58572;48.110;19.838;2022-12-11T05:42:04;95651.91;;;3.14;80.84
70921;BME280;58572;48.110;19.838;2022-12-11T05:44:33;95645.00;;;2.71;78.60
70921;BME280;58572;48.110;19.838;2022-12-11T05:47:00;95674.88;;;2.40;83.51
70921;BME280;58572;48.110;19.838;2022-12-11T05:49:27;95670.31;;;3.02;79.15
70921;BME280;58572;48.110;19.838;2022-12-11T05:51:54;95672.59;;;3.14;78.82
70921;BME280;58572;48.110;19.838;2022-12-11T05:54:22;95677.16;;;3.13;80.81
70921;BME280;58572;48.110;19.838;2022-12-11T05:56:49;95683.84;;;3.16;80.84
70921;BME280;58572;48.110;19.838;2022-12-11T05:59:16;95673.75;;;3.27;80.59
70921;BME280;58572;48.110;19.838;2022-12-11T06:01:45;95674.69;;;3.36;79.07
70921;BME280;58572;48.110;19.838;2022-12-11T06:04:13;95667.66;;;3.40;79.72
70921;BME280;58572;48.110;19.838;2022-12-11T06:06:40;95575.81;;;2.68;80.23
70921;BME280;58572;48.110;19.838;2022-12-11T06:09:12;95664.69;;;3.23;80.11
70921;BME280;58572;48.110;19.838;2022-12-11T06:11:39;95666.94;;;3.15;81.14
70921;BME280;58572;48.110;19.838;2022-12-11T06:14:08;95391.59;;;1.55;80.38
70921;BME280;58572;48.110;19.838;2022-12-11T06:16:35;95669.25;;;3.22;80.14
70921;BME280;58572;48.110;19.838;2022-12-11T06:19:05;95647.66;;;3.13;80.04
70921;BME280;58572;48.110;19.838;2022-12-11T06:21:32;95625.78;;;3.01;80.12
70921;BME280;58572;48.110;19.838;2022-12-11T06:24:01;95683.41;;;3.28;79.87
70921;BME280;58572;48.110;19.838;2022-12-11T06:26:30;95685.38;;;3.41;79.47
70921;BME280;58572;48.110;19.838;2022-12-11T06:28:57;95622.09;;;2.97;79.89
70921;BME280;58572;48.110;19.838;2022-12-11T06:31:25;95687.69;;;3.29;80.17
70921;BME280;58572;48.110;19.838;2022-12-11T06:33:52;95695.00;;;3.42;79.40
70921;BME280;58572;48.110;19.838;2022-12-11T06:36:22;95698.72;;;3.27;80.33
70921;BME280;58572;48.110;19.838;2022-12-11T06:38:50;95695.31;;;3.40;79.84
70921;BME280;58572;48.110;19.838;2022-12-11T06:41:17;95703.81;;;3.29;77.56
70921;BME280;58572;48.110;19.838;2022-12-11T06:43:44;95594.16;;;2.61;79.88
70921;BME280;58572;48.110;19.838;2022-12-11T06:46:13;95715.06;;;3.31;79.75
70921;BME280;58572;48.110;19.838;2022-12-11T06:48:44;95722.09;;;3.45;79.12
70921;BME280;58572;48.110;19.838;2022-12-11T06:51:11;95723.53;;;3.38;79.92
70921;BME280;58572;48.110;19.838;2022-12-11T06:53:40;95730.59;;;3.34;79.78
70921;BME280;58572;48.110;19.838;2022-12-11T06:56:10;95734.88;;;3.35;80.12
70921;BME280;58572;48.110;19.838;2022-12-11T06:58:38;95720.84;;;3.38;78.76
70921;BME280;58572;48.110;19.838;2022-12-11T07:01:13;95741.41;;;3.47;79.11
70921;BME280;58572;48.110;19.838;2022-12-11T07:03:40;95762.72;;;3.39;79.43
70921;BME280;58572;48.110;19.838;2022-12-11T07:06:07;95739.66;;;3.57;78.57
70921;BME280;58572;48.110;19.838;2022-12-11T07:08:35;95569.22;;;2.41;79.30
70921;BME280;58572;48.110;19.838;2022-12-11T07:11:05;95738.34;;;3.54;78.82
70921;BME280;58572;48.110;19.838;2022-12-11T07:13:33;95741.63;;;3.51;79.01
70921;BME280;58572;48.110;19.838;2022-12-11T07:16:00;95749.81;;;3.60;78.87
70921;BME280;58572;48.110;19.838;2022-12-11T07:18:29;95754.09;;;3.42;79.63
70921;BME280;58572;48.110;19.838;2022-12-11T07:20:57;95763.97;;;3.46;79.51
70921;BME280;58572;48.110;19.838;2022-12-11T07:23:26;95769.06;;;3.67;77.77
70921;BME280;58572;48.110;19.838;2022-12-11T07:25:53;95761.28;;;3.46;79.13
70921;BME280;58572;48.110;19.838;2022-12-11T07:28:22;95766.78;;;3.74;77.82
70921;BME280;58572;48.110;19.838;2022-12-11T07:30:49;95771.09;;;3.56;78.90
70921;BME280;58572;48.110;19.838;2022-12-11T07:33:16;95778.63;;;3.35;79.41
70921;BME280;58572;48.110;19.838;2022-12-11T07:35:43;95786.13;;;3.57;79.24
70921;BME280;58572;48.110;19.838;2022-12-11T07:38:10;95755.97;;;3.23;79.39
70921;BME280;58572;48.110;19.838;2022-12-11T07:40:37;95794.66;;;3.40;79.20
70921;BME280;58572;48.110;19.838;2022-12-11T07:43:04;95795.84;;;3.53;78.36
70921;BME280;58572;48.110;19.838;2022-12-11T07:45:33;95777.97;;;3.25;79.05
70921;BME280;58572;48.110;19.838;2022-12-11T07:48:00;95816.03;;;3.50;79.12
70921;BME280;58572;48.110;19.838;2022-12-11T07:50:27;95821.09;;;3.52;78.97
70921;BME280;58572;48.110;19.838;2022-12-11T07:52:54;95809.84;;;3.50;79.05
70921;BME280;58572;48.110;19.838;2022-12-11T07:55:24;95808.22;;;3.30;79.39
70921;BME280;58572;48.110;19.838;2022-12-11T07:57:51;95780.19;;;3.17;79.10
70921;BME280;58572;48.110;19.838;2022-12-11T08:00:18;95827.00;;;3.54;78.82
70921;BME280;58572;48.110;19.838;2022-12-11T08:02:47;95812.34;;;3.65;78.13
70921;BME280;58572;48.110;19.838;2022-12-11T08:05:14;95834.97;;;3.59;78.81
70921;BME280;58572;48.110;19.838;2022-12-11T08:07:41;95820.59;;;3.50;79.34
70921;BME280;58572;48.110;19.838;2022-12-11T08:10:08;95819.44;;;3.56;78.69
70921;BME280;58572;48.110;19.838;2022-12-11T08:12:36;95833.38;;;3.58;79.04
70921;BME280;58572;48.110;19.838;2022-12-11T08:15:03;95844.00;;;3.68;77.87
70921;BME280;58572;48.110;19.838;2022-12-11T08:17:30;95842.84;;;3.74;78.33
70921;BME280;58572;48.110;19.838;2022-12-11T08:19:59;95840.72;;;3.52;78.42
70921;BME280;58572;48.110;19.838;2022-12-11T08:22:26;95840.22;;;3.69;78.31
70921;BME280;58572;48.110;19.838;2022-12-11T08:24:53;95851.66;;;3.13;80.30
70921;BME280;58572;48.110;19.838;2022-12-11T08:27:20;95858.31;;;3.40;79.32
70921;BME280;58572;48.110;19.838;2022-12-11T08:29:47;95861.53;;;3.42;79.16
70921;BME280;58572;48.110;19.838;2022-12-11T08:32:15;95873.34;;;3.41;78.96
70921;BME280;58572;48.110;19.838;2022-12-11T08:34:42;95746.34;;;2.98;78.08
70921;BME280;58572;48.110;19.838;2022-12-11T08:37:11;95863.16;;;3.80;77.89
70921;BME280;58572;48.110;19.838;2022-12-11T08:39:38;95867.59;;;3.71;77.83
70921;BME280;58572;48.110;19.838;2022-12-11T08:42:06;95872.97;;;3.90;77.23
70921;BME280;58572;48.110;19.838;2022-12-11T08:44:33;95887.09;;;3.10;78.84
70921;BME280;58572;48.110;19.838;2022-12-11T08:47:00;95886.56;;;3.37;79.01
70921;BME280;58572;48.110;19.838;2022-12-11T08:49:28;95896.31;;;3.52;79.27
70921;BME280;58572;48.110;19.838;2022-12-11T08:51:55;95895.16;;;3.58;78.88
70921;BME280;58572;48.110;19.838;2022-12-11T08:54:24;95896.16;;;3.86;77.13
70921;BME280;58572;48.110;19.838;2022-12-11T08:56:51;95901.56;;;3.62;78.53
70921;BME280;58572;48.110;19.838;2022-12-11T08:59:18;95905.84;;;3.63;78.17
70921;BME280;58572;48.110;19.838;2022-12-11T09:01:45;95904.75;;;3.64;78.66
70921;BME280;58572;48.110;19.838;2022-12-11T09:04:13;95904.25;;;3.62;78.41
70921;BME280;58572;48.110;19.838;2022-12-11T09:06:40;95916.03;;;3.66;78.40
70921;BME280;58572;48.110;19.838;2022-12-11T09:09:08;95914.31;;;3.51;78.89
70921;BME280;58572;48.110;19.838;2022-12-11T09:11:36;95909.06;;;3.65;78.55
70921;BME280;58572;48.110;19.838;2022-12-11T09:14:04;95917.72;;;3.81;77.91
70921;BME280;58572;48.110;19.838;2022-12-11T09:16:31;95916.72;;;3.53;78.91
70921;BME280;58572;48.110;19.838;2022-12-11T09:18:59;95923.34;;;3.61;78.32
70921;BME280;58572;48.110;19.838;2022-12-11T09:21:28;95867.38;;;3.25;78.24
70921;BME280;58572;48.110;19.838;2022-12-11T09:23:57;95918.84;;;3.56;78.39
70921;BME280;58572;48.110;19.838;2022-12-11T09:26:25;95921.13;;;3.68;78.01
70921;BME280;58572;48.110;19.838;2022-12-11T09:28:54;95920.75;;;3.74;77.95
70921;BME280;58572;48.110;19.838;2022-12-11T09:31:23;95920.69;;;3.79;78.15
70921;BME280;58572;48.110;19.838;2022-12-11T09:33:53;95931.38;;;3.84;77.84
70921;BME280;58572;48.110;19.838;2022-12-11T09:36:21;95942.94;;;3.13;79.11
70921;BME280;58572;48.110;19.838;2022-12-11T09:38:49;95926.22;;;3.22;78.40
70921;BME280;58572;48.110;19.838;2022-12-11T09:41:29;95935.81;;;3.28;80.05
70921;BME280;58572;48.110;19.838;2022-12-11T09:44:11;95910.91;;;3.46;78.16
70921;BME280;58572;48.110;19.838;2022-12-11T09:46:41;95937.53;;;3.66;78.13
70921;BME280;58572;48.110;19.838;2022-12-11T09:49:16;95874.91;;;3.23;77.81
70921;BME280;58572;48.110;19.838;2022-12-11T09:51:50;95947.13;;;3.72;77.99
70921;BME280;58572;48.110;19.838;2022-12-11T09:54:40;95941.34;;;3.84;77.36
70921;BME280;58572;48.110;19.838;2022-12-11T09:57:51;95935.53;;;3.96;76.85
70921;BME280;58572;48.110;19.838;2022-12-11T10:00:48;95950.03;;;4.19;76.61
70921;BME280;58572;48.110;19.838;2022-12-11T10:03:33;95958.66;;;3.73;78.09
70921;BME280;58572;48.110;19.838;2022-12-11T10:06:11;95962.88;;;4.03;76.72
70921;BME280;58572;48.110;19.838;2022-12-11T10:08:44;95961.03;;;3.98;77.10
70921;BME280;58572;48.110;19.838;2022-12-11T10:11:28;95952.47;;;4.15;76.45
70921;BME280;58572;48.110;19.838;2022-12-11T10:14:05;95951.13;;;4.18;76.10
70921;BME280;58572;48.110;19.838;2022-12-11T10:16:43;95955.00;;;4.30;75.90
70921;BME280;58572;48.110;19.838;2022-12-11T10:19:16;95829.63;;;3.11;77.16
70921;BME280;58572;48.110;19.838;2022-12-11T10:21:44;95959.72;;;4.38;75.54
70921;BME280;58572;48.110;19.838;2022-12-11T10:24:19;95964.97;;;4.06;76.92
70921;BME280;58572;48.110;19.838;2022-12-11T10:26:52;95961.03;;;4.22;76.28
70921;BME280;58572;48.110;19.838;2022-12-11T10:29:22;95972.44;;;4.33;75.50
70921;BME280;58572;48.110;19.838;2022-12-11T10:31:54;95783.63;;;2.99;76.06
70921;BME280;58572;48.110;19.838;2022-12-11T10:34:28;95969.25;;;4.07;76.46
70921;BME280;58572;48.110;19.838;2022-12-11T10:36:59;95952.91;;;3.37;77.67
70921;BME280;58572;48.110;19.838;2022-12-11T10:39:27;95964.97;;;4.06;77.40
70921;BME280;58572;48.110;19.838;2022-12-11T10:41:55;95968.03;;;3.28;78.48
70921;BME280;58572;48.110;19.838;2022-12-11T10:44:24;95973.31;;;2.75;79.50
70921;BME280;58572;48.110;19.838;2022-12-11T10:47:03;95968.81;;;2.26;82.69
70921;BME280;58572;48.110;19.838;2022-12-11T10:49:32;95862.59;;;2.35;81.20
70921;BME280;58572;48.110;19.838;2022-12-11T10:52:00;95953.47;;;2.71;79.64
70921;BME280;58572;48.110;19.838;2022-12-11T10:54:36;95948.56;;;2.83;81.07
70921;BME280;58572;48.110;19.838;2022-12-11T10:57:05;95937.03;;;2.82;81.48
70921;BME280;58572;48.110;19.838;2022-12-11T10:59:36;95913.75;;;3.31;78.23
70921;BME280;58572;48.110;19.838;2022-12-11T11:02:17;95956.63;;;3.41;78.61
70921;BME280;58572;48.110;19.838;2022-12-11T11:04:45;95956.38;;;3.08;79.46
70921;BME280;58572;48.110;19.838;2022-12-11T11:07:14;95959.09;;;3.03;80.92
70921;BME280;58572;48.110;19.838;2022-12-11T11:09:42;95959.56;;;3.10;80.30
70921;BME280;58572;48.110;19.838;2022-12-11T11:12:20;95974.44;;;3.32;78.88
70921;BME280;58572;48.110;19.838;2022-12-11T11:14:59;95969.88;;;2.30;81.90
70921;BME280;58572;48.110;19.838;2022-12-11T11:17:30;95968.69;;;2.46;80.92
70921;BME280;58572;48.110;19.838;2022-12-11T11:20:03;95992.38;;;2.34;82.87
70921;BME280;58572;48.110;19.838;2022-12-11T11:22:42;95705.69;;;0.52;81.25
70921;BME280;58572;48.110;19.838;2022-12-11T11:25:15;96014.50;;;2.55;81.39
70921;BME280;58572;48.110;19.838;2022-12-11T11:27:47;96007.03;;;1.92;82.83
70921;BME280;58572;48.110;19.838;2022-12-11T11:30:19;95915.13;;;2.36;80.58
70921;BME280;58572;48.110;19.838;2022-12-11T11:32:49;96000.31;;;2.49;80.93
70921;BME280;58572;48.110;19.838;2022-12-11T11:35:20;96003.75;;;3.28;79.31
70921;BME280;58572;48.110;19.838;2022-12-11T11:37:55;96013.19;;;1.93;82.85
70921;BME280;58572;48.110;19.838;2022-12-11T11:40:28;95998.66;;;2.93;80.90
70921;BME280;58572;48.110;19.838;2022-12-11T11:43:04;95998.59;;;3.32;79.03
70921;BME280;58572;48.110;19.838;2022-12-11T11:45:38;95995.09;;;2.24;82.20
70921;BME280;58572;48.110;19.838;2022-12-11T11:48:19;96003.81;;;2.84;80.75
70921;BME280;58572;48.110;19.838;2022-12-11T11:50:51;95967.28;;;2.15;81.95
70921;BME280;58572;48.110;19.838;2022-12-11T11:53:22;96000.34;;;3.17;79.63
70921;BME280;58572;48.110;19.838;2022-12-11T11:55:59;96004.53;;;2.95;80.03
70921;BME280;58572;48.110;19.838;2022-12-11T11:58:35;96018.72;;;2.66;80.93
70921;BME280;58572;48.110;19.838;2022-12-11T12:01:04;96024.88;;;2.67;80.68
70921;BME280;58572;48.110;19.838;2022-12-11T12:03:32;96032.56;;;2.39;81.47
70921;BME280;58572;48.110;19.838;2022-12-11T12:06:06;96054.25;;;1.68;83.81
70921;BME280;58572;48.110;19.838;2022-12-11T12:08:41;96050.69;;;1.93;82.69
70921;BME280;58572;48.110;19.838;2022-12-11T12:11:18;96040.94;;;1.33;83.99
70921;BME280;58572;48.110;19.838;2022-12-11T12:14:00;96058.75;;;2.52;81.39
70921;BME280;58572;48.110;19.838;2022-12-11T12:16:38;96058.22;;;2.55;81.23
70921;BME280;58572;48.110;19.838;2022-12-11T12:19:14;96058.81;;;2.86;80.31
70921;BME280;58572;48.110;19.838;2022-12-11T12:21:50;96069.44;;;2.63;80.34
70921;BME280;58572;48.110;19.838;2022-12-11T12:24:27;96057.81;;;2.28;81.97
70921;BME280;58572;48.110;19.838;2022-12-11T12:27:01;96063.28;;;1.98;82.81
70921;BME280;58572;48.110;19.838;2022-12-11T12:29:43;95990.34;;;2.06;81.51
70921;BME280;58572;48.110;19.838;2022-12-11T12:32:22;96071.09;;;2.53;82.12
70921;BME280;58572;48.110;19.838;2022-12-11T12:35:04;96071.91;;;2.54;80.65
70921;BME280;58572;48.110;19.838;2022-12-11T12:37:46;96074.78;;;2.13;82.83
70921;BME280;58572;48.110;19.838;2022-12-11T12:40:22;96073.59;;;2.35;81.84
70921;BME280;58572;48.110;19.838;2022-12-11T12:43:04;96047.91;;;2.29;81.07
70921;BME280;58572;48.110;19.838;2022-12-11T12:45:37;96064.34;;;3.00;80.04
70921;BME280;58572;48.110;19.838;2022-12-11T12:48:09;96058.75;;;3.31;78.35
70921;BME280;58572;48.110;19.838;2022-12-11T12:50:41;96067.44;;;2.78;79.71
70921;BME280;58572;48.110;19.838;2022-12-11T12:53:15;96034.59;;;2.58;80.93
70921;BME280;58572;48.110;19.838;2022-12-11T12:55:44;95968.06;;;1.51;81.29
70921;BME280;58572;48.110;19.838;2022-12-11T12:58:24;96075.69;;;2.92;80.23
70921;BME280;58572;48.110;19.838;2022-12-11T13:00:52;96080.09;;;3.17;78.27
70921;BME280;58572;48.110;19.838;2022-12-11T13:03:21;96075.00;;;3.10;79.10
70921;BME280;58572;48.110;19.838;2022-12-11T13:05:57;96075.88;;;3.01;78.31
70921;BME280;58572;48.110;19.838;2022-12-11T13:08:26;96077.78;;;1.81;83.12
70921;BME280;58572;48.110;19.838;2022-12-11T13:11:01;96081.50;;;1.90;82.68
70921;BME280;58572;48.110;19.838;2022-12-11T13:13:33;96075.28;;;2.15;81.89
70921;BME280;58572;48.110;19.838;2022-12-11T13:16:22;96087.09;;;2.14;81.36
70921;BME280;58572;48.110;19.838;2022-12-11T13:18:50;96097.56;;;2.70;80.37
70921;BME280;58572;48.110;19.838;2022-12-11T13:21:28;96105.31;;;2.72;80.53